sensor_id;sensor_type;location;lat;lon;timestamp;pressure;altitude;pressure_sealevel;temperature;humidity
48614;BME280;34408;51.426;5.444;2023-06-24T00:02:03;102348.22;;;22.41;53.92
48614;BME280;34408;51.426;5.444;2023-06-24T00:04:31;102347.41;;;22.40;54.20
48614;BME280;34408;51.426;5.444;2023-06-24T00:06:59;102353.69;;;22.41;54.43
48614;BME280;34408;51.426;5.444;2023-06-24T00:09:28;102344.63;;;22.35;54.14
48614;BME280;34408;51.426;5.444;2023-06-24T00:11:57;102349.84;;;22.37;54.28
48614;BME280;34408;51.426;5.444;2023-06-24T00:14:26;102348.44;;;22.34;54.06
48614;BME280;34408;51.426;5.444;2023-06-24T00:16:55;102350.63;;;22.32;54.10
48614;BME280;34408;51.426;5.444;2023-06-24T00:19:25;102355.28;;;22.32;54.10
48614;BME280;34408;51.426;5.444;2023-06-24T00:21:53;102355.56;;;22.30;54.38
48614;BME280;34408;51.426;5.444;2023-06-24T00:24:21;102354.44;;;22.26;54.37
48614;BME280;34408;51.426;5.444;2023-06-24T00:26:53;102354.16;;;22.28;54.70
48614;BME280;34408;51.426;5.444;2023-06-24T00:29:21;102350.03;;;22.25;54.69
48614;BME280;34408;51.426;5.444;2023-06-24T00:31:49;102353.88;;;22.24;54.55
48614;BME280;34408;51.426;5.444;2023-06-24T00:34:17;102356.88;;;22.23;54.86
48614;BME280;34408;51.426;5.444;2023-06-24T00:36:46;102355.47;;;22.20;54.74
48614;BME280;34408;51.426;5.444;2023-06-24T00:39:14;102360.97;;;22.20;54.79
48614;BME280;34408;51.426;5.444;2023-06-24T00:41:42;102358.47;;;22.19;54.77
48614;BME280;34408;51.426;5.444;2023-06-24T00:44:12;102366.13;;;22.17;55.15
48614;BME280;34408;51.426;5.444;2023-06-24T00:46:39;102351.88;;;22.15;54.73
48614;BME280;34408;51.426;5.444;2023-06-24T00:49:07;102360.09;;;22.15;54.89
48614;BME280;34408;51.426;5.444;2023-06-24T00:51:36;102359.53;;;22.13;54.86
48614;BME280;34408;51.426;5.444;2023-06-24T00:54:06;102360.63;;;22.12;54.87
48614;BME280;34408;51.426;5.444;2023-06-24T00:56:35;102364.44;;;22.11;54.95
48614;BME280;34408;51.426;5.444;2023-06-24T00:59:06;102363.88;;;22.08;54.77
48614;BME280;34408;51.426;5.444;2023-06-24T01:01:36;102369.88;;;22.05;54.61
48614;BME280;34408;51.426;5.444;2023-06-24T01:04:06;102366.31;;;22.05;54.73
48614;BME280;34408;51.426;5.444;2023-06-24T01:06:35;102362.19;;;22.02;54.48
48614;BME280;34408;51.426;5.444;2023-06-24T01:09:07;102357.78;;;22.01;54.31
48614;BME280;34408;51.426;5.444;2023-06-24T01:11:35;102355.56;;;21.98;54.22
48614;BME280;34408;51.426;5.444;2023-06-24T01:14:03;102353.91;;;21.97;54.08
48614;BME280;34408;51.426;5.444;2023-06-24T01:16:40;102353.06;;;21.97;54.02
48614;BME280;34408;51.426;5.444;2023-06-24T01:19:29;102351.44;;;21.96;53.95
48614;BME280;34408;51.426;5.444;2023-06-24T01:22:07;102349.78;;;21.95;54.08
48614;BME280;34408;51.426;5.444;2023-06-24T01:24:51;102356.34;;;21.94;54.02
48614;BME280;34408;51.426;5.444;2023-06-24T01:27:45;102353.59;;;21.94;54.00
48614;BME280;34408;51.426;5.444;2023-06-24T01:30:42;102353.84;;;21.92;53.89
48614;BME280;34408;51.426;5.444;2023-06-24T01:33:22;102342.09;;;21.92;53.70
48614;BME280;34408;51.426;5.444;2023-06-24T01:35:52;102346.75;;;21.91;53.87
48614;BME280;34408;51.426;5.444;2023-06-24T01:38:24;102343.16;;;21.91;53.73
48614;BME280;34408;51.426;5.444;2023-06-24T01:40:55;102346.75;;;21.91;53.58
48614;BME280;34408;51.426;5.444;2023-06-24T01:43:23;102355.22;;;21.90;53.67
48614;BME280;34408;51.426;5.444;2023-06-24T01:45:53;102347.00;;;21.90;53.39
48614;BME280;34408;51.426;5.444;2023-06-24T01:48:25;102353.81;;;21.87;53.55
48614;BME280;34408;51.426;5.444;2023-06-24T01:50:58;102346.13;;;21.84;53.53
48614;BME280;34408;51.426;5.444;2023-06-24T01:53:27;102340.41;;;21.86;53.63
48614;BME280;34408;51.426;5.444;2023-06-24T01:55:57;102346.94;;;21.85;53.67
48614;BME280;34408;51.426;5.444;2023-06-24T01:58:26;102339.00;;;21.83;53.79
48614;BME280;34408;51.426;5.444;2023-06-24T02:00:56;102345.56;;;21.82;53.79
48614;BME280;34408;51.426;5.444;2023-06-24T02:03:27;102345.00;;;21.80;53.75
48614;BME280;34408;51.426;5.444;2023-06-24T02:05:56;102344.16;;;21.80;53.85
48614;BME280;34408;51.426;5.444;2023-06-24T02:08:26;102342.53;;;21.79;53.94
48614;BME280;34408;51.426;5.444;2023-06-24T02:10:58;102341.13;;;21.76;53.85
48614;BME280;34408;51.426;5.444;2023-06-24T02:13:28;102335.09;;;21.74;53.88
48614;BME280;34408;51.426;5.444;2023-06-24T02:15:59;102336.19;;;21.73;53.97
48614;BME280;34408;51.426;5.444;2023-06-24T02:18:30;102345.47;;;21.72;53.99
48614;BME280;34408;51.426;5.444;2023-06-24T02:20:59;102343.25;;;21.69;53.85
48614;BME280;34408;51.426;5.444;2023-06-24T02:23:28;102337.78;;;21.69;54.22
48614;BME280;34408;51.426;5.444;2023-06-24T02:25:57;102345.16;;;21.68;54.23
48614;BME280;34408;51.426;5.444;2023-06-24T02:28:28;102336.66;;;21.65;54.19
48614;BME280;34408;51.426;5.444;2023-06-24T02:30:57;102333.34;;;21.63;54.15
48614;BME280;34408;51.426;5.444;2023-06-24T02:33:25;102332.53;;;21.62;54.20
48614;BME280;34408;51.426;5.444;2023-06-24T02:35:55;102331.13;;;21.60;54.29
48614;BME280;34408;51.426;5.444;2023-06-24T02:38:23;102333.88;;;21.60;54.21
48614;BME280;34408;51.426;5.444;2023-06-24T02:40:54;102337.69;;;21.59;54.42
48614;BME280;34408;51.426;5.444;2023-06-24T02:43:23;102345.34;;;21.57;54.34
48614;BME280;34408;51.426;5.444;2023-06-24T02:45:51;102342.03;;;21.55;54.53
48614;BME280;34408;51.426;5.444;2023-06-24T02:48:21;102339.28;;;21.55;54.55
48614;BME280;34408;51.426;5.444;2023-06-24T02:50:50;102336.00;;;21.53;54.42
48614;BME280;34408;51.426;5.444;2023-06-24T02:53:20;102328.88;;;21.52;54.64
48614;BME280;34408;51.426;5.444;2023-06-24T02:55:48;102337.34;;;21.50;54.57
48614;BME280;34408;51.426;5.444;2023-06-24T02:58:17;102341.97;;;21.50;54.64
48614;BME280;34408;51.426;5.444;2023-06-24T03:00:45;102351.28;;;21.49;54.72
48614;BME280;34408;51.426;5.444;2023-06-24T03:03:12;102344.97;;;21.48;54.60
48614;BME280;34408;51.426;5.444;2023-06-24T03:05:41;102353.44;;;21.47;54.73
48614;BME280;34408;51.426;5.444;2023-06-24T03:08:11;102355.34;;;21.46;54.71
48614;BME280;34408;51.426;5.444;2023-06-24T03:10:41;102356.44;;;21.45;54.77
48614;BME280;34408;51.426;5.444;2023-06-24T03:13:09;102359.41;;;21.43;54.81
48614;BME280;34408;51.426;5.444;2023-06-24T03:15:37;102365.16;;;21.42;54.97
48614;BME280;34408;51.426;5.444;2023-06-24T03:18:04;102358.03;;;21.41;54.88
48614;BME280;34408;51.426;5.444;2023-06-24T03:20:32;102359.94;;;21.40;54.98
48614;BME280;34408;51.426;5.444;2023-06-24T03:23:05;102359.38;;;21.38;54.98
48614;BME280;34408;51.426;5.444;2023-06-24T03:25:34;102358.81;;;21.36;55.11
48614;BME280;34408;51.426;5.444;2023-06-24T03:28:03;102351.41;;;21.37;55.18
48614;BME280;34408;51.426;5.444;2023-06-24T03:30:33;102350.84;;;21.35;55.04
48614;BME280;34408;51.426;5.444;2023-06-24T03:33:01;102351.94;;;21.34;55.05
48614;BME280;34408;51.426;5.444;2023-06-24T03:35:29;102352.19;;;21.32;55.22
48614;BME280;34408;51.426;5.444;2023-06-24T03:37:59;102353.28;;;21.31;55.11
48614;BME280;34408;51.426;5.444;2023-06-24T03:40:27;102354.34;;;21.30;55.21
48614;BME280;34408;51.426;5.444;2023-06-24T03:42:55;102351.88;;;21.29;55.19
48614;BME280;34408;51.426;5.444;2023-06-24T03:45:24;102354.88;;;21.27;55.16
48614;BME280;34408;51.426;5.444;2023-06-24T03:47:52;102348.84;;;21.25;55.27
48614;BME280;34408;51.426;5.444;2023-06-24T03:50:20;102349.91;;;21.24;55.44
48614;BME280;34408;51.426;5.444;2023-06-24T03:52:47;102353.72;;;21.23;55.22
48614;BME280;34408;51.426;5.444;2023-06-24T03:55:15;102359.69;;;21.20;55.11
48614;BME280;34408;51.426;5.444;2023-06-24T03:57:43;102359.69;;;21.20;55.24
48614;BME280;34408;51.426;5.444;2023-06-24T04:00:12;102376.09;;;21.20;55.36
48614;BME280;34408;51.426;5.444;2023-06-24T04:02:44;102371.13;;;21.17;55.47
48614;BME280;34408;51.426;5.444;2023-06-24T04:05:12;102365.09;;;21.15;55.34
48614;BME280;34408;51.426;5.444;2023-06-24T04:07:42;102368.09;;;21.13;55.36
48614;BME280;34408;51.426;5.444;2023-06-24T04:10:13;102368.09;;;21.13;55.42
48614;BME280;34408;51.426;5.444;2023-06-24T04:12:41;102371.06;;;21.12;55.52
48614;BME280;34408;51.426;5.444;2023-06-24T04:15:10;102365.84;;;21.10;55.34
48614;BME280;34408;51.426;5.444;2023-06-24T04:17:37;102363.38;;;21.09;55.43
48614;BME280;34408;51.426;5.444;2023-06-24T04:20:08;102364.47;;;21.08;55.63
48614;BME280;34408;51.426;5.444;2023-06-24T04:22:36;102370.19;;;21.06;55.44
48614;BME280;34408;51.426;5.444;2023-06-24T04:25:05;102368.53;;;21.05;55.43
48614;BME280;34408;51.426;5.444;2023-06-24T04:27:33;102371.53;;;21.04;55.42
48614;BME280;34408;51.426;5.444;2023-06-24T04:30:02;102368.78;;;21.04;55.55
48614;BME280;34408;51.426;5.444;2023-06-24T04:32:30;102375.34;;;21.03;55.57
48614;BME280;34408;51.426;5.444;2023-06-24T04:34:58;102371.19;;;21.00;55.48
48614;BME280;34408;51.426;5.444;2023-06-24T04:37:28;102380.22;;;21.01;55.42
48614;BME280;34408;51.426;5.444;2023-06-24T04:39:57;102372.53;;;20.98;55.54
48614;BME280;34408;51.426;5.444;2023-06-24T04:42:24;102378.00;;;20.98;55.52
48614;BME280;34408;51.426;5.444;2023-06-24T04:44:52;102378.25;;;20.96;55.56
48614;BME280;34408;51.426;5.444;2023-06-24T04:47:20;102376.34;;;20.97;55.51
48614;BME280;34408;51.426;5.444;2023-06-24T04:49:48;102372.78;;;20.96;55.39
48614;BME280;34408;51.426;5.444;2023-06-24T04:52:16;102367.31;;;20.96;55.14
48614;BME280;34408;51.426;5.444;2023-06-24T04:54:45;102370.06;;;20.96;54.79
48614;BME280;34408;51.426;5.444;2023-06-24T04:57:23;102363.50;;;20.97;54.97
48614;BME280;34408;51.426;5.444;2023-06-24T04:59:51;102367.91;;;20.98;54.92
48614;BME280;34408;51.426;5.444;2023-06-24T05:02:19;102361.34;;;20.99;54.74
48614;BME280;34408;51.426;5.444;2023-06-24T05:04:47;102362.75;;;21.02;54.81
48614;BME280;34408;51.426;5.444;2023-06-24T05:07:15;102358.94;;;21.03;54.74
48614;BME280;34408;51.426;5.444;2023-06-24T05:09:46;102367.69;;;21.05;54.73
48614;BME280;34408;51.426;5.444;2023-06-24T05:12:14;102364.47;;;21.08;54.70
48614;BME280;34408;51.426;5.444;2023-06-24T05:14:42;102365.03;;;21.10;54.59
48614;BME280;34408;51.426;5.444;2023-06-24T05:17:10;102372.97;;;21.11;54.51
48614;BME280;34408;51.426;5.444;2023-06-24T05:19:37;102366.19;;;21.14;54.48
48614;BME280;34408;51.426;5.444;2023-06-24T05:22:06;102368.66;;;21.16;54.56
48614;BME280;34408;51.426;5.444;2023-06-24T05:24:34;102365.41;;;21.19;54.75
48614;BME280;34408;51.426;5.444;2023-06-24T05:27:06;102366.31;;;21.24;54.89
48614;BME280;34408;51.426;5.444;2023-06-24T05:29:34;102351.72;;;21.19;54.72
48614;BME280;34408;51.426;5.444;2023-06-24T05:32:02;102365.81;;;21.27;54.47
48614;BME280;34408;51.426;5.444;2023-06-24T05:34:30;102361.16;;;21.28;54.54
48614;BME280;34408;51.426;5.444;2023-06-24T05:36:58;102359.00;;;21.30;54.40
48614;BME280;34408;51.426;5.444;2023-06-24T05:39:26;102363.13;;;21.32;54.54
48614;BME280;34408;51.426;5.444;2023-06-24T05:41:53;102371.91;;;21.34;54.55
48614;BME280;34408;51.426;5.444;2023-06-24T05:44:22;102359.50;;;21.27;54.43
48614;BME280;34408;51.426;5.444;2023-06-24T05:46:50;102381.19;;;21.33;54.33
48614;BME280;34408;51.426;5.444;2023-06-24T05:49:18;102381.75;;;21.35;54.58
48614;BME280;34408;51.426;5.444;2023-06-24T05:51:46;102379.59;;;21.37;54.66
48614;BME280;34408;51.426;5.444;2023-06-24T05:54:14;102373.88;;;21.39;54.52
48614;BME280;34408;51.426;5.444;2023-06-24T05:56:41;102375.25;;;21.41;54.52
48614;BME280;34408;51.426;5.444;2023-06-24T05:59:09;102376.91;;;21.42;54.60
48614;BME280;34408;51.426;5.444;2023-06-24T06:01:38;102377.50;;;21.44;54.35
48614;BME280;34408;51.426;5.444;2023-06-24T06:04:06;102370.94;;;21.46;54.38
48614;BME280;34408;51.426;5.444;2023-06-24T06:06:34;102374.25;;;21.48;54.25
48614;BME280;34408;51.426;5.444;2023-06-24T06:09:02;102378.38;;;21.50;53.99
48614;BME280;34408;51.426;5.444;2023-06-24T06:11:30;102378.38;;;21.50;54.02
48614;BME280;34408;51.426;5.444;2023-06-24T06:13:58;102375.38;;;21.52;54.03
48614;BME280;34408;51.426;5.444;2023-06-24T06:16:26;102375.94;;;21.54;53.95
48614;BME280;34408;51.426;5.444;2023-06-24T06:18:56;102377.34;;;21.56;53.70
48614;BME280;34408;51.426;5.444;2023-06-24T06:21:24;102382.56;;;21.58;53.65
48614;BME280;34408;51.426;5.444;2023-06-24T06:23:52;102390.25;;;21.61;53.73
48614;BME280;34408;51.426;5.444;2023-06-24T06:26:20;102370.78;;;21.57;53.72
48614;BME280;34408;51.426;5.444;2023-06-24T06:28:47;102381.31;;;21.70;53.51
48614;BME280;34408;51.426;5.444;2023-06-24T06:31:16;102381.06;;;21.72;53.48
48614;BME280;34408;51.426;5.444;2023-06-24T06:33:44;102385.19;;;21.74;53.32
48614;BME280;34408;51.426;5.444;2023-06-24T06:36:13;102395.09;;;21.81;53.26
48614;BME280;34408;51.426;5.444;2023-06-24T06:38:41;102380.63;;;21.85;53.02
48614;BME280;34408;51.426;5.444;2023-06-24T06:41:09;102387.22;;;21.89;53.11
48614;BME280;34408;51.426;5.444;2023-06-24T06:43:37;102388.88;;;21.90;52.85
48614;BME280;34408;51.426;5.444;2023-06-24T06:46:05;102395.19;;;21.91;53.06
48614;BME280;34408;51.426;5.444;2023-06-24T06:48:33;102394.94;;;21.92;52.81
48614;BME280;34408;51.426;5.444;2023-06-24T06:51:00;102400.97;;;21.94;52.63
48614;BME280;34408;51.426;5.444;2023-06-24T06:53:30;102393.56;;;21.95;52.74
48614;BME280;34408;51.426;5.444;2023-06-24T06:55:57;102403.69;;;21.94;52.59
48614;BME280;34408;51.426;5.444;2023-06-24T06:58:26;102393.84;;;21.93;52.15
48614;BME280;34408;51.426;5.444;2023-06-24T07:00:53;102399.09;;;22.00;52.03
48614;BME280;34408;51.426;5.444;2023-06-24T07:03:21;102401.56;;;22.01;52.17
48614;BME280;34408;51.426;5.444;2023-06-24T07:05:49;102403.25;;;22.02;51.74
48614;BME280;34408;51.426;5.444;2023-06-24T07:08:17;102410.38;;;22.03;51.90
48614;BME280;34408;51.426;5.444;2023-06-24T07:10:46;102411.53;;;22.07;51.67
48614;BME280;34408;51.426;5.444;2023-06-24T07:13:14;102417.00;;;22.07;50.44
48614;BME280;34408;51.426;5.444;2023-06-24T07:15:42;102412.91;;;22.10;50.52
48614;BME280;34408;51.426;5.444;2023-06-24T07:18:09;102416.72;;;22.09;50.56
48614;BME280;34408;51.426;5.444;2023-06-24T07:20:37;102419.22;;;22.11;50.76
48614;BME280;34408;51.426;5.444;2023-06-24T07:23:08;102420.31;;;22.10;50.71
48614;BME280;34408;51.426;5.444;2023-06-24T07:25:36;102421.66;;;22.07;50.34
48614;BME280;34408;51.426;5.444;2023-06-24T07:28:05;102421.91;;;22.05;50.42
48614;BME280;34408;51.426;5.444;2023-06-24T07:30:33;102411.22;;;22.04;50.34
48614;BME280;34408;51.426;5.444;2023-06-24T07:33:01;102414.22;;;22.02;50.83
48614;BME280;34408;51.426;5.444;2023-06-24T07:35:32;102414.22;;;22.02;51.11
48614;BME280;34408;51.426;5.444;2023-06-24T07:38:00;102407.91;;;22.02;50.86
48614;BME280;34408;51.426;5.444;2023-06-24T07:40:28;102408.47;;;22.04;51.16
48614;BME280;34408;51.426;5.444;2023-06-24T07:42:56;102408.78;;;22.07;51.25
48614;BME280;34408;51.426;5.444;2023-06-24T07:45:25;102409.88;;;22.06;51.35
48614;BME280;34408;51.426;5.444;2023-06-24T07:47:53;102413.94;;;22.04;51.16
48614;BME280;34408;51.426;5.444;2023-06-24T07:50:21;102409.31;;;22.04;51.34
48614;BME280;34408;51.426;5.444;2023-06-24T07:52:49;102409.16;;;22.21;51.82
48614;BME280;34408;51.426;5.444;2023-06-24T07:55:16;102406.44;;;22.21;51.52
48614;BME280;34408;51.426;5.444;2023-06-24T07:57:45;102410.63;;;22.34;51.06
48614;BME280;34408;51.426;5.444;2023-06-24T08:00:14;102406.72;;;22.25;50.74
48614;BME280;34408;51.426;5.444;2023-06-24T08:02:43;102403.94;;;22.20;50.95
48614;BME280;34408;51.426;5.444;2023-06-24T08:05:11;102407.34;;;22.32;51.51
48614;BME280;34408;51.426;5.444;2023-06-24T08:07:39;102401.28;;;22.30;50.85
48614;BME280;34408;51.426;5.444;2023-06-24T08:10:07;102401.59;;;22.33;51.06
48614;BME280;34408;51.426;5.444;2023-06-24T08:12:35;102401.81;;;22.27;51.27
48614;BME280;34408;51.426;5.444;2023-06-24T08:15:04;102402.34;;;22.24;50.85
48614;BME280;34408;51.426;5.444;2023-06-24T08:17:32;102394.38;;;22.22;50.74
48614;BME280;34408;51.426;5.444;2023-06-24T08:20:01;102404.63;;;22.37;50.76
48614;BME280;34408;51.426;5.444;2023-06-24T08:22:30;102404.13;;;22.45;50.35
48614;BME280;34408;51.426;5.444;2023-06-24T08:24:58;102403.00;;;22.41;50.49
48614;BME280;34408;51.426;5.444;2023-06-24T08:27:26;102402.69;;;22.32;50.37
48614;BME280;34408;51.426;5.444;2023-06-24T08:29:54;102392.78;;;22.26;50.50
48614;BME280;34408;51.426;5.444;2023-06-24T08:32:22;102395.78;;;22.25;50.84
48614;BME280;34408;51.426;5.444;2023-06-24T08:34:50;102394.16;;;22.29;50.84
48614;BME280;34408;51.426;5.444;2023-06-24T08:37:19;102404.09;;;22.40;50.71
48614;BME280;34408;51.426;5.444;2023-06-24T08:39:47;102395.56;;;22.31;51.07
48614;BME280;34408;51.426;5.444;2023-06-24T08:42:15;102400.09;;;22.53;50.88
48614;BME280;34408;51.426;5.444;2023-06-24T08:44:42;102398.41;;;22.47;50.36
48614;BME280;34408;51.426;5.444;2023-06-24T08:47:11;102391.25;;;22.46;50.67
48614;BME280;34408;51.426;5.444;2023-06-24T08:49:46;102391.53;;;22.44;50.68
48614;BME280;34408;51.426;5.444;2023-06-24T08:52:15;102394.84;;;22.46;50.81
48614;BME280;34408;51.426;5.444;2023-06-24T08:54:50;102385.75;;;22.40;50.83
48614;BME280;34408;51.426;5.444;2023-06-24T08:57:18;102388.22;;;22.42;51.12
48614;BME280;34408;51.426;5.444;2023-06-24T08:59:45;102390.44;;;22.45;50.81
48614;BME280;34408;51.426;5.444;2023-06-24T09:02:13;102394.34;;;22.59;50.62
48614;BME280;34408;51.426;5.444;2023-06-24T09:04:41;102389.69;;;22.60;50.58
48614;BME280;34408;51.426;5.444;2023-06-24T09:07:09;102380.94;;;22.63;50.13
48614;BME280;34408;51.426;5.444;2023-06-24T09:09:42;102384.47;;;22.58;50.54
48614;BME280;34408;51.426;5.444;2023-06-24T09:12:13;102384.53;;;22.68;50.30
48614;BME280;34408;51.426;5.444;2023-06-24T09:14:47;102383.03;;;22.93;49.59
48614;BME280;34408;51.426;5.444;2023-06-24T09:17:15;102379.72;;;22.86;49.82
48614;BME280;34408;51.426;5.444;2023-06-24T09:19:43;102368.19;;;22.84;49.72
48614;BME280;34408;51.426;5.444;2023-06-24T09:22:11;102371.19;;;22.82;49.87
48614;BME280;34408;51.426;5.444;2023-06-24T09:24:44;102365.72;;;22.87;49.62
48614;BME280;34408;51.426;5.444;2023-06-24T09:27:15;102367.75;;;23.07;48.90
48614;BME280;34408;51.426;5.444;2023-06-24T09:29:45;102366.34;;;23.04;48.86
48614;BME280;34408;51.426;5.444;2023-06-24T09:32:13;102366.03;;;22.96;49.56
48614;BME280;34408;51.426;5.444;2023-06-24T09:34:43;102355.63;;;22.93;49.46
48614;BME280;34408;51.426;5.444;2023-06-24T09:37:21;102346.59;;;22.97;49.66
48614;BME280;34408;51.426;5.444;2023-06-24T09:39:49;102353.72;;;22.98;49.89
48614;BME280;34408;51.426;5.444;2023-06-24T09:42:20;102346.59;;;22.97;49.88
48614;BME280;34408;51.426;5.444;2023-06-24T09:44:52;102348.22;;;22.98;49.93
48614;BME280;34408;51.426;5.444;2023-06-24T09:47:20;102345.81;;;23.12;49.22
48614;BME280;34408;51.426;5.444;2023-06-24T09:49:52;102341.97;;;23.08;49.16
48614;BME280;34408;51.426;5.444;2023-06-24T09:52:20;102339.78;;;23.15;49.36
48614;BME280;34408;51.426;5.444;2023-06-24T09:54:51;102337.59;;;23.17;49.14
48614;BME280;34408;51.426;5.444;2023-06-24T09:57:25;102324.13;;;23.11;49.66
48614;BME280;34408;51.426;5.444;2023-06-24T09:59:54;102338.44;;;23.23;48.86
48614;BME280;34408;51.426;5.444;2023-06-24T10:02:22;102340.34;;;23.22;48.82
48614;BME280;34408;51.426;5.444;2023-06-24T10:04:51;102330.75;;;23.25;49.01
48614;BME280;34408;51.426;5.444;2023-06-24T10:07:20;102331.31;;;23.27;49.39
48614;BME280;34408;51.426;5.444;2023-06-24T10:09:48;102339.81;;;23.30;48.74
48614;BME280;34408;51.426;5.444;2023-06-24T10:12:16;102331.63;;;23.46;47.96
48614;BME280;34408;51.426;5.444;2023-06-24T10:14:45;102328.88;;;23.46;48.77
48614;BME280;34408;51.426;5.444;2023-06-24T10:17:14;102329.97;;;23.45;48.78
48614;BME280;34408;51.426;5.444;2023-06-24T10:19:42;102326.13;;;23.51;47.32
48614;BME280;34408;51.426;5.444;2023-06-24T10:22:10;102331.41;;;23.57;48.59
48614;BME280;34408;51.426;5.444;2023-06-24T10:24:40;102325.91;;;23.57;49.18
48614;BME280;34408;51.426;5.444;2023-06-24T10:27:13;102329.19;;;23.59;48.99
48614;BME280;34408;51.426;5.444;2023-06-24T10:29:46;102329.19;;;23.59;49.27
48614;BME280;34408;51.426;5.444;2023-06-24T10:32:14;102321.50;;;23.61;49.25
48614;BME280;34408;51.426;5.444;2023-06-24T10:34:43;102315.19;;;23.61;48.96
48614;BME280;34408;51.426;5.444;2023-06-24T10:37:13;102324.53;;;23.70;47.85
48614;BME280;34408;51.426;5.444;2023-06-24T10:39:49;102318.50;;;23.73;48.42
48614;BME280;34408;51.426;5.444;2023-06-24T10:42:31;102329.47;;;23.73;49.16
48614;BME280;34408;51.426;5.444;2023-06-24T10:45:13;102309.72;;;23.81;47.68
48614;BME280;34408;51.426;5.444;2023-06-24T10:47:43;102305.31;;;23.80;48.49
48614;BME280;34408;51.426;5.444;2023-06-24T10:50:12;102306.97;;;23.86;48.79
48614;BME280;34408;51.426;5.444;2023-06-24T10:52:41;102306.69;;;23.88;49.26
48614;BME280;34408;51.426;5.444;2023-06-24T10:55:10;102304.78;;;23.88;48.95
48614;BME280;34408;51.426;5.444;2023-06-24T10:57:40;102305.31;;;23.90;49.45
48614;BME280;34408;51.426;5.444;2023-06-24T11:00:11;102294.88;;;23.92;49.32
48614;BME280;34408;51.426;5.444;2023-06-24T11:02:39;102293.22;;;23.91;48.07
48614;BME280;34408;51.426;5.444;2023-06-24T11:05:08;102297.06;;;23.90;47.25
48614;BME280;34408;51.426;5.444;2023-06-24T11:07:37;102296.53;;;23.88;46.95
48614;BME280;34408;51.426;5.444;2023-06-24T11:10:07;102292.13;;;23.87;45.90
48614;BME280;34408;51.426;5.444;2023-06-24T11:12:39;102298.19;;;23.89;46.50
48614;BME280;34408;51.426;5.444;2023-06-24T11:15:10;102293.22;;;23.91;47.04
48614;BME280;34408;51.426;5.444;2023-06-24T11:17:38;102292.69;;;23.94;46.54
48614;BME280;34408;51.426;5.444;2023-06-24T11:20:07;102291.03;;;23.98;46.70
48614;BME280;34408;51.426;5.444;2023-06-24T11:22:35;102283.63;;;23.99;44.30
48614;BME280;34408;51.426;5.444;2023-06-24T11:25:04;102285.25;;;23.95;43.00
48614;BME280;34408;51.426;5.444;2023-06-24T11:27:32;102280.88;;;23.94;42.97
48614;BME280;34408;51.426;5.444;2023-06-24T11:30:00;102289.66;;;23.96;43.52
48614;BME280;34408;51.426;5.444;2023-06-24T11:32:37;102283.06;;;24.02;45.46
48614;BME280;34408;51.426;5.444;2023-06-24T11:35:07;102280.03;;;24.09;45.66
48614;BME280;34408;51.426;5.444;2023-06-24T11:37:35;102270.94;;;24.18;46.41
48614;BME280;34408;51.426;5.444;2023-06-24T11:40:04;102277.81;;;24.26;46.23
48614;BME280;34408;51.426;5.444;2023-06-24T11:42:33;102272.00;;;24.32;45.85
48614;BME280;34408;51.426;5.444;2023-06-24T11:45:04;102267.03;;;24.34;45.21
48614;BME280;34408;51.426;5.444;2023-06-24T11:47:32;102270.34;;;24.37;43.73
48614;BME280;34408;51.426;5.444;2023-06-24T11:50:03;102269.78;;;24.40;44.16
48614;BME280;34408;51.426;5.444;2023-06-24T11:52:42;102264.81;;;24.42;44.89
48614;BME280;34408;51.426;5.444;2023-06-24T11:55:12;102259.06;;;24.38;43.44
48614;BME280;34408;51.426;5.444;2023-06-24T11:57:47;102263.69;;;24.48;42.66
48614;BME280;34408;51.426;5.444;2023-06-24T12:00:16;102268.34;;;24.52;43.72
48614;BME280;34408;51.426;5.444;2023-06-24T12:02:44;102261.19;;;24.56;44.81
48614;BME280;34408;51.426;5.444;2023-06-24T12:05:19;102267.78;;;24.60;43.08
48614;BME280;34408;51.426;5.444;2023-06-24T12:07:54;102256.47;;;24.67;44.16
48614;BME280;34408;51.426;5.444;2023-06-24T12:10:23;102250.69;;;24.69;44.29
48614;BME280;34408;51.426;5.444;2023-06-24T12:12:51;102251.22;;;24.71;43.86
48614;BME280;34408;51.426;5.444;2023-06-24T12:15:19;102247.06;;;24.78;43.89
48614;BME280;34408;51.426;5.444;2023-06-24T12:17:47;102251.13;;;24.86;44.41
48614;BME280;34408;51.426;5.444;2023-06-24T12:20:17;102246.75;;;24.85;43.19
48614;BME280;34408;51.426;5.444;2023-06-24T12:22:45;102245.06;;;24.89;42.42
48614;BME280;34408;51.426;5.444;2023-06-24T12:25:13;102246.44;;;24.96;43.91
48614;BME280;34408;51.426;5.444;2023-06-24T12:27:42;102242.25;;;25.04;44.66
48614;BME280;34408;51.426;5.444;2023-06-24T12:30:10;102244.41;;;25.12;44.52
48614;BME280;34408;51.426;5.444;2023-06-24T12:32:39;102242.69;;;25.21;44.60
48614;BME280;34408;51.426;5.444;2023-06-24T12:35:07;102236.84;;;25.28;45.23
48614;BME280;34408;51.426;5.444;2023-06-24T12:37:37;102234.94;;;25.28;43.83
48614;BME280;34408;51.426;5.444;2023-06-24T12:40:06;102235.22;;;25.27;43.77
48614;BME280;34408;51.426;5.444;2023-06-24T12:42:34;102229.44;;;25.28;44.63
48614;BME280;34408;51.426;5.444;2023-06-24T12:45:02;102232.13;;;25.34;45.36
48614;BME280;34408;51.426;5.444;2023-06-24T12:47:30;102222.09;;;25.48;44.60
48614;BME280;34408;51.426;5.444;2023-06-24T12:49:58;102222.00;;;25.58;44.54
48614;BME280;34408;51.426;5.444;2023-06-24T12:52:25;102217.84;;;25.66;44.83
48614;BME280;34408;51.426;5.444;2023-06-24T12:54:54;102219.09;;;25.78;44.44
48614;BME280;34408;51.426;5.444;2023-06-24T12:57:22;102218.66;;;25.95;43.41
48614;BME280;34408;51.426;5.444;2023-06-24T12:59:50;102218.13;;;25.93;44.48
48614;BME280;34408;51.426;5.444;2023-06-24T13:02:18;102223.03;;;25.96;45.15